sensor_id;sensor_type;location;lat;lon;timestamp;pressure;altitude;pressure_sealevel;temperature;humidity
49393;BME280;35268;42.642;23.308;2022-09-09T00:01:46;94183.09;;;17.91;67.92
49393;BME280;35268;42.642;23.308;2022-09-09T00:04:30;94180.41;;;17.91;68.00
49393;BME280;35268;42.642;23.308;2022-09-09T00:07:07;94177.72;;;17.91;67.82
49393;BME280;35268;42.642;23.308;2022-09-09T00:09:45;94183.75;;;17.84;68.21
49393;BME280;35268;42.642;23.308;2022-09-09T00:12:14;94175.09;;;17.78;68.26
49393;BME280;35268;42.642;23.308;2022-09-09T00:15:00;94182.84;;;17.80;68.46
49393;BME280;35268;42.642;23.308;2022-09-09T00:23:16;94173.81;;;17.72;68.44
49393;BME280;35268;42.642;23.308;2022-09-09T00:28:39;94155.22;;;17.67;68.11
49393;BME280;35268;42.642;23.308;2022-09-09T00:31:16;94152.97;;;17.69;68.04
49393;BME280;35268;42.642;23.308;2022-09-09T00:33:44;94146.00;;;17.68;68.28
49393;BME280;35268;42.642;23.308;2022-09-09T00:36:14;94144.88;;;17.69;68.12
49393;BME280;35268;42.642;23.308;2022-09-09T00:38:44;94141.75;;;17.67;68.54
49393;BME280;35268;42.642;23.308;2022-09-09T00:44:00;94131.75;;;17.52;68.97
49393;BME280;35268;42.642;23.308;2022-09-09T00:46:41;94133.59;;;17.48;69.37
49393;BME280;35268;42.642;23.308;2022-09-09T00:54:54;94139.41;;;17.50;69.50
49393;BME280;35268;42.642;23.308;2022-09-09T00:57:31;94134.75;;;17.47;69.54
49393;BME280;35268;42.642;23.308;2022-09-09T01:10:59;94137.25;;;17.39;69.55
49393;BME280;35268;42.642;23.308;2022-09-09T01:13:27;94142.31;;;17.41;69.95
49393;BME280;35268;42.642;23.308;2022-09-09T01:15:57;94144.66;;;17.42;68.95
49393;BME280;35268;42.642;23.308;2022-09-09T01:18:27;94141.16;;;17.42;68.97
49393;BME280;35268;42.642;23.308;2022-09-09T01:28:34;94134.75;;;17.47;68.41
49393;BME280;35268;42.642;23.308;2022-09-09T01:31:01;94131.53;;;17.41;68.88
49393;BME280;35268;42.642;23.308;2022-09-09T01:33:27;94133.88;;;17.42;68.91
49393;BME280;35268;42.642;23.308;2022-09-09T01:36:00;94145.09;;;17.44;69.22
49393;BME280;35268;42.642;23.308;2022-09-09T01:38:29;94139.59;;;17.41;69.24
49393;BME280;35268;42.642;23.308;2022-09-09T01:40:55;94153.06;;;17.41;69.56
49393;BME280;35268;42.642;23.308;2022-09-09T01:43:22;94150.72;;;17.39;69.32
49393;BME280;35268;42.642;23.308;2022-09-09T01:45:51;94151.50;;;17.40;68.78
49393;BME280;35268;42.642;23.308;2022-09-09T01:48:18;94153.84;;;17.41;68.88
49393;BME280;35268;42.642;23.308;2022-09-09T01:50:44;94163.84;;;17.41;69.16
49393;BME280;35268;42.642;23.308;2022-09-09T01:53:11;94161.16;;;17.41;68.82
49393;BME280;35268;42.642;23.308;2022-09-09T01:55:41;94155.44;;;17.42;67.91
49393;BME280;35268;42.642;23.308;2022-09-09T02:01:13;94162.22;;;17.36;67.68
49393;BME280;35268;42.642;23.308;2022-09-09T02:03:44;94157.94;;;17.35;68.38
49393;BME280;35268;42.642;23.308;2022-09-09T02:06:34;94145.88;;;17.29;68.97
49393;BME280;35268;42.642;23.308;2022-09-09T02:09:04;94157.41;;;17.30;68.99
49393;BME280;35268;42.642;23.308;2022-09-09T02:11:30;94161.16;;;17.25;69.19
49393;BME280;35268;42.642;23.308;2022-09-09T02:14:12;94151.97;;;17.26;68.70
49393;BME280;35268;42.642;23.308;2022-09-09T02:19:16;94136.47;;;17.23;69.36
49393;BME280;35268;42.642;23.308;2022-09-09T02:21:46;94141.28;;;17.14;69.61
49393;BME280;35268;42.642;23.308;2022-09-09T02:24:14;94133.09;;;17.10;69.74
49393;BME280;35268;42.642;23.308;2022-09-09T02:26:42;94133.09;;;17.10;70.06
49393;BME280;35268;42.642;23.308;2022-09-09T02:29:14;94129.19;;;17.08;70.05
49393;BME280;35268;42.642;23.308;2022-09-09T02:31:42;94132.56;;;17.04;69.90
49393;BME280;35268;42.642;23.308;2022-09-09T02:34:10;94154.44;;;17.03;69.58
49393;BME280;35268;42.642;23.308;2022-09-09T02:36:38;94138.56;;;16.98;69.32
49393;BME280;35268;42.642;23.308;2022-09-09T02:39:08;94149.69;;;16.96;69.51
49393;BME280;35268;42.642;23.308;2022-09-09T02:41:37;94154.28;;;16.96;69.66
49393;BME280;35268;42.642;23.308;2022-09-09T02:44:12;94151.06;;;16.90;69.93
49393;BME280;35268;42.642;23.308;2022-09-09T02:52:19;94158.84;;;16.79;70.48
49393;BME280;35268;42.642;23.308;2022-09-09T02:54:49;94153.59;;;16.71;70.71
49393;BME280;35268;42.642;23.308;2022-09-09T02:57:30;94160.13;;;16.70;70.88
49393;BME280;35268;42.642;23.308;2022-09-09T02:59:57;94161.22;;;16.69;70.68
49393;BME280;35268;42.642;23.308;2022-09-09T03:02:23;94155.84;;;16.69;70.51
49393;BME280;35268;42.642;23.308;2022-09-09T03:04:50;94149.69;;;16.68;70.87
49393;BME280;35268;42.642;23.308;2022-09-09T03:07:16;94156.22;;;16.67;70.57
49393;BME280;35268;42.642;23.308;2022-09-09T03:09:42;94162.38;;;16.68;70.50
49393;BME280;35268;42.642;23.308;2022-09-09T03:12:08;94157.66;;;16.64;70.52
49393;BME280;35268;42.642;23.308;2022-09-09T03:14:33;94162.81;;;16.70;70.11
49393;BME280;35268;42.642;23.308;2022-09-09T03:16:59;94158.09;;;16.67;69.86
49393;BME280;35268;42.642;23.308;2022-09-09T03:19:26;94161.59;;;16.67;70.16
49393;BME280;35268;42.642;23.308;2022-09-09T03:21:53;94161.22;;;16.69;70.57
49393;BME280;35268;42.642;23.308;2022-09-09T03:24:18;94158.91;;;16.67;70.47
49393;BME280;35268;42.642;23.308;2022-09-09T03:26:44;94165.06;;;16.68;70.81
49393;BME280;35268;42.642;23.308;2022-09-09T03:29:10;94150.03;;;16.67;71.00
49393;BME280;35268;42.642;23.308;2022-09-09T03:31:38;94158.81;;;16.63;70.78
49393;BME280;35268;42.642;23.308;2022-09-09T03:34:03;94157.66;;;16.64;71.00
49393;BME280;35268;42.642;23.308;2022-09-09T03:36:29;94160.34;;;16.64;71.36
49393;BME280;35268;42.642;23.308;2022-09-09T03:38:55;94156.53;;;16.65;71.24
49393;BME280;35268;42.642;23.308;2022-09-09T03:41:24;94154.09;;;16.60;70.98
49393;BME280;35268;42.642;23.308;2022-09-09T03:43:50;94144.63;;;16.51;71.66
49393;BME280;35268;42.642;23.308;2022-09-09T03:46:17;94150.00;;;16.51;71.93
49393;BME280;35268;42.642;23.308;2022-09-09T03:48:43;94149.91;;;16.47;71.78
49393;BME280;35268;42.642;23.308;2022-09-09T03:51:09;94152.16;;;16.45;72.00
49393;BME280;35268;42.642;23.308;2022-09-09T03:53:34;94147.22;;;16.47;72.01
49393;BME280;35268;42.642;23.308;2022-09-09T03:56:01;94156.41;;;16.46;71.91
49393;BME280;35268;42.642;23.308;2022-09-09T03:58:27;94162.03;;;16.41;71.79
49393;BME280;35268;42.642;23.308;2022-09-09T04:00:59;94159.69;;;16.39;72.01
49393;BME280;35268;42.642;23.308;2022-09-09T04:03:25;94151.59;;;16.39;72.08
49393;BME280;35268;42.642;23.308;2022-09-09T04:05:55;94174.34;;;16.42;72.16
49393;BME280;35268;42.642;23.308;2022-09-09T04:08:21;94173.69;;;16.45;72.33
49393;BME280;35268;42.642;23.308;2022-09-09T04:10:47;94168.63;;;16.43;71.79
49393;BME280;35268;42.642;23.308;2022-09-09T04:13:17;94166.03;;;16.47;72.22
49393;BME280;35268;42.642;23.308;2022-09-09T04:15:44;94164.13;;;16.48;71.85
49393;BME280;35268;42.642;23.308;2022-09-09T04:18:15;94155.72;;;16.49;72.09
49393;BME280;35268;42.642;23.308;2022-09-09T04:20:40;94152.34;;;16.52;71.98
49393;BME280;35268;42.642;23.308;2022-09-09T04:23:05;94152.78;;;16.54;71.69
49393;BME280;35268;42.642;23.308;2022-09-09T04:25:31;94154.78;;;16.57;71.65
49393;BME280;35268;42.642;23.308;2022-09-09T04:27:57;94157.91;;;16.59;71.76
49393;BME280;35268;42.642;23.308;2022-09-09T04:30:24;94163.31;;;16.59;71.88
49393;BME280;35268;42.642;23.308;2022-09-09T04:32:50;94169.56;;;16.63;72.02
49393;BME280;35268;42.642;23.308;2022-09-09T04:35:15;94168.84;;;16.67;72.15
49393;BME280;35268;42.642;23.308;2022-09-09T04:37:41;94165.50;;;16.70;72.03
49393;BME280;35268;42.642;23.308;2022-09-09T04:40:08;94169.06;;;16.74;72.53
49393;BME280;35268;42.642;23.308;2022-09-09T04:42:35;94172.63;;;16.78;72.34
49393;BME280;35268;42.642;23.308;2022-09-09T04:45:02;94182.25;;;16.79;71.39
49393;BME280;35268;42.642;23.308;2022-09-09T04:47:27;94169.59;;;16.79;70.51
49393;BME280;35268;42.642;23.308;2022-09-09T04:49:53;94165.47;;;16.82;70.86
49393;BME280;35268;42.642;23.308;2022-09-09T04:52:20;94164.09;;;16.88;70.82
49393;BME280;35268;42.642;23.308;2022-09-09T04:54:46;94152.72;;;16.95;71.09
49393;BME280;35268;42.642;23.308;2022-09-09T04:57:12;94153.69;;;17.02;71.30
49393;BME280;35268;42.642;23.308;2022-09-09T04:59:38;94156.19;;;17.11;71.31
49393;BME280;35268;42.642;23.308;2022-09-09T05:02:05;94152.53;;;17.19;71.27
49393;BME280;35268;42.642;23.308;2022-09-09T05:04:31;94147.00;;;17.28;70.87
49393;BME280;35268;42.642;23.308;2022-09-09T05:06:56;94153.69;;;17.34;70.13
49393;BME280;35268;42.642;23.308;2022-09-09T05:09:22;94136.56;;;17.42;69.78
49393;BME280;35268;42.642;23.308;2022-09-09T05:11:47;94126.38;;;17.52;69.34
49393;BME280;35268;42.642;23.308;2022-09-09T05:14:13;94135.06;;;17.61;70.17
49393;BME280;35268;42.642;23.308;2022-09-09T05:16:40;94143.72;;;17.70;67.88
49393;BME280;35268;42.642;23.308;2022-09-09T05:19:05;94161.63;;;17.78;67.51
49393;BME280;35268;42.642;23.308;2022-09-09T05:21:33;94153.19;;;17.80;66.83
49393;BME280;35268;42.642;23.308;2022-09-09T05:23:58;94140.91;;;17.82;67.08
49393;BME280;35268;42.642;23.308;2022-09-09T05:26:25;94132.16;;;17.86;67.45
49393;BME280;35268;42.642;23.308;2022-09-09T05:28:51;94138.00;;;17.88;67.58
49393;BME280;35268;42.642;23.308;2022-09-09T05:31:18;94146.38;;;18.02;67.36
49393;BME280;35268;42.642;23.308;2022-09-09T05:33:45;94137.38;;;18.14;66.83
49393;BME280;35268;42.642;23.308;2022-09-09T05:36:13;94134.75;;;18.17;66.04
49393;BME280;35268;42.642;23.308;2022-09-09T05:38:39;94139.44;;;18.20;65.18
49393;BME280;35268;42.642;23.308;2022-09-09T05:41:06;94139.44;;;18.20;65.66
49393;BME280;35268;42.642;23.308;2022-09-09T05:43:32;94142.13;;;18.20;65.76
49393;BME280;35268;42.642;23.308;2022-09-09T05:46:09;94147.88;;;18.19;65.31
49393;BME280;35268;42.642;23.308;2022-09-09T05:48:39;94159.88;;;18.21;65.59
49393;BME280;35268;42.642;23.308;2022-09-09T05:51:07;94165.69;;;18.23;66.15
49393;BME280;35268;42.642;23.308;2022-09-09T05:53:33;94151.50;;;18.27;66.34
49393;BME280;35268;42.642;23.308;2022-09-09T05:56:30;94148.94;;;18.34;66.40
49393;BME280;35268;42.642;23.308;2022-09-09T05:58:59;94149.03;;;18.37;65.43
49393;BME280;35268;42.642;23.308;2022-09-09T06:01:31;94144.56;;;18.45;64.89
49393;BME280;35268;42.642;23.308;2022-09-09T06:03:57;94150.81;;;18.49;63.97
49393;BME280;35268;42.642;23.308;2022-09-09T06:06:24;94167.84;;;18.53;63.97
49393;BME280;35268;42.642;23.308;2022-09-09T06:08:52;94173.97;;;18.50;64.68
49393;BME280;35268;42.642;23.308;2022-09-09T06:11:25;94170.03;;;18.48;63.98
49393;BME280;35268;42.642;23.308;2022-09-09T06:14:01;94173.16;;;18.50;64.62
49393;BME280;35268;42.642;23.308;2022-09-09T06:16:28;94170.13;;;18.51;64.99
49393;BME280;35268;42.642;23.308;2022-09-09T06:18:55;94168.00;;;18.60;64.29
49393;BME280;35268;42.642;23.308;2022-09-09T06:21:22;94175.81;;;18.65;63.84
49393;BME280;35268;42.642;23.308;2022-09-09T06:23:48;94165.06;;;18.69;63.53
49393;BME280;35268;42.642;23.308;2022-09-09T06:27:02;94166.44;;;18.79;62.61
49393;BME280;35268;42.642;23.308;2022-09-09T06:29:27;94167.31;;;18.83;62.72
49393;BME280;35268;42.642;23.308;2022-09-09T06:31:52;94169.41;;;18.93;62.32
49393;BME280;35268;42.642;23.308;2022-09-09T06:34:21;94165.69;;;19.01;62.21
49393;BME280;35268;42.642;23.308;2022-09-09T06:37:05;94152.78;;;19.14;61.90
49393;BME280;35268;42.642;23.308;2022-09-09T06:39:41;94154.13;;;19.24;61.00
49393;BME280;35268;42.642;23.308;2022-09-09T06:42:08;94157.72;;;19.32;60.99
49393;BME280;35268;42.642;23.308;2022-09-09T06:44:53;94160.78;;;19.30;61.17
49393;BME280;35268;42.642;23.308;2022-09-09T06:47:21;94153.19;;;19.39;60.74
49393;BME280;35268;42.642;23.308;2022-09-09T06:49:56;94159.50;;;19.47;61.53
49393;BME280;35268;42.642;23.308;2022-09-09T06:56:15;94172.72;;;19.75;60.23
49393;BME280;35268;42.642;23.308;2022-09-09T06:58:43;94172.00;;;19.78;59.86
49393;BME280;35268;42.642;23.308;2022-09-09T07:01:13;94174.72;;;19.78;59.89
49393;BME280;35268;42.642;23.308;2022-09-09T07:03:44;94176.38;;;19.87;59.45
49393;BME280;35268;42.642;23.308;2022-09-09T07:06:15;94169.75;;;19.84;58.65
49393;BME280;35268;42.642;23.308;2022-09-09T07:08:47;94165.50;;;19.83;59.01
49393;BME280;35268;42.642;23.308;2022-09-09T07:11:20;94171.06;;;19.94;58.75
49393;BME280;35268;42.642;23.308;2022-09-09T07:14:20;94164.94;;;20.00;58.06
49393;BME280;35268;42.642;23.308;2022-09-09T07:17:04;94161.13;;;20.01;58.86
49393;BME280;35268;42.642;23.308;2022-09-09T07:19:33;94164.78;;;20.16;58.60
49393;BME280;35268;42.642;23.308;2022-09-09T07:22:09;94163.84;;;20.32;58.47
49393;BME280;35268;42.642;23.308;2022-09-09T07:24:38;94165.16;;;20.45;57.39
49393;BME280;35268;42.642;23.308;2022-09-09T07:27:03;94157.28;;;20.63;56.86
49393;BME280;35268;42.642;23.308;2022-09-09T07:29:29;94150.88;;;20.78;56.71
49393;BME280;35268;42.642;23.308;2022-09-09T07:31:54;94155.31;;;20.97;56.16
49393;BME280;35268;42.642;23.308;2022-09-09T07:34:20;94151.91;;;21.04;55.01
49393;BME280;35268;42.642;23.308;2022-09-09T07:36:46;94148.56;;;21.18;54.94
49393;BME280;35268;42.642;23.308;2022-09-09T07:39:13;94155.72;;;21.40;54.88
49393;BME280;35268;42.642;23.308;2022-09-09T07:41:42;94158.66;;;21.62;54.70
49393;BME280;35268;42.642;23.308;2022-09-09T07:44:11;94167.66;;;21.77;52.20
49393;BME280;35268;42.642;23.308;2022-09-09T07:46:37;94161.84;;;21.78;52.07
49393;BME280;35268;42.642;23.308;2022-09-09T07:49:05;94168.53;;;21.88;52.20
49393;BME280;35268;42.642;23.308;2022-09-09T07:51:51;94167.84;;;22.06;52.54
49393;BME280;35268;42.642;23.308;2022-09-09T07:54:18;94164.50;;;22.30;52.25
49393;BME280;35268;42.642;23.308;2022-09-09T07:56:48;94165.78;;;22.54;51.34
49393;BME280;35268;42.642;23.308;2022-09-09T07:59:14;94167.41;;;22.66;50.31
49393;BME280;35268;42.642;23.308;2022-09-09T08:01:45;94154.28;;;22.86;50.52
49393;BME280;35268;42.642;23.308;2022-09-09T08:04:18;94154.31;;;23.00;48.55
49393;BME280;35268;42.642;23.308;2022-09-09T08:06:47;94154.72;;;23.02;48.45
49393;BME280;35268;42.642;23.308;2022-09-09T08:09:13;94156.66;;;23.06;48.16
49393;BME280;35268;42.642;23.308;2022-09-09T08:11:39;94156.28;;;23.11;47.77
49393;BME280;35268;42.642;23.308;2022-09-09T08:14:10;94164.06;;;23.12;47.83
49393;BME280;35268;42.642;23.308;2022-09-09T08:16:38;94156.31;;;23.25;47.89
49393;BME280;35268;42.642;23.308;2022-09-09T08:19:05;94159.81;;;23.36;48.28
49393;BME280;35268;42.642;23.308;2022-09-09T08:21:33;94162.16;;;23.56;47.69
49393;BME280;35268;42.642;23.308;2022-09-09T08:24:00;94161.41;;;23.73;47.44
49393;BME280;35268;42.642;23.308;2022-09-09T08:26:30;94160.25;;;23.96;47.14
49393;BME280;35268;42.642;23.308;2022-09-09T08:28:58;94166.03;;;24.05;46.25
49393;BME280;35268;42.642;23.308;2022-09-09T08:31:31;94153.56;;;24.15;46.82
49393;BME280;35268;42.642;23.308;2022-09-09T08:33:58;94151.97;;;24.28;46.82
49393;BME280;35268;42.642;23.308;2022-09-09T08:36:31;94160.53;;;24.37;45.01
49393;BME280;35268;42.642;23.308;2022-09-09T08:38:59;94151.94;;;24.53;45.78
49393;BME280;35268;42.642;23.308;2022-09-09T08:58:04;94147.19;;;24.72;44.65
49393;BME280;35268;42.642;23.308;2022-09-09T09:07:05;94143.00;;;25.30;43.22
49393;BME280;35268;42.642;23.308;2022-09-09T09:09:46;94149.84;;;25.53;42.74
49393;BME280;35268;42.642;23.308;2022-09-09T09:12:57;94145.38;;;25.73;41.53
49393;BME280;35268;42.642;23.308;2022-09-09T09:15:25;94146.13;;;25.77;41.16
49393;BME280;35268;42.642;23.308;2022-09-09T09:17:52;94154.25;;;25.85;41.18
49393;BME280;35268;42.642;23.308;2022-09-09T09:20:21;94152.63;;;25.94;41.69
49393;BME280;35268;42.642;23.308;2022-09-09T09:22:54;94146.25;;;26.08;40.80
49393;BME280;35268;42.642;23.308;2022-09-09T09:25:27;94153.91;;;26.24;40.69
49393;BME280;35268;42.642;23.308;2022-09-09T09:33:43;94153.97;;;26.17;39.83
49393;BME280;35268;42.642;23.308;2022-09-09T09:36:12;94149.94;;;26.32;40.08
49393;BME280;35268;42.642;23.308;2022-09-09T09:38:52;94141.56;;;26.47;39.48
49393;BME280;35268;42.642;23.308;2022-09-09T09:41:41;94146.44;;;26.66;38.57
49393;BME280;35268;42.642;23.308;2022-09-09T09:44:28;94143.69;;;26.66;38.81
49393;BME280;35268;42.642;23.308;2022-09-09T09:47:15;94134.53;;;26.80;38.14
49393;BME280;35268;42.642;23.308;2022-09-09T09:49:58;94138.41;;;26.82;38.84
49393;BME280;35268;42.642;23.308;2022-09-09T09:52:33;94127.84;;;26.85;37.89
49393;BME280;35268;42.642;23.308;2022-09-09T09:55:03;94132.13;;;26.86;37.95
49393;BME280;35268;42.642;23.308;2022-09-09T09:57:32;94129.72;;;26.91;37.72
49393;BME280;35268;42.642;23.308;2022-09-09T10:00:17;94129.25;;;26.96;38.68
49393;BME280;35268;42.642;23.308;2022-09-09T10:02:44;94120.63;;;26.98;38.85
49393;BME280;35268;42.642;23.308;2022-09-09T10:05:22;94120.91;;;27.07;38.01
49393;BME280;35268;42.642;23.308;2022-09-09T10:08:11;94125.59;;;27.07;38.31
49393;BME280;35268;42.642;23.308;2022-09-09T10:29:44;94135.41;;;26.39;40.66
49393;BME280;35268;42.642;23.308;2022-09-09T10:43:30;94146.25;;;26.46;40.91
49393;BME280;35268;42.642;23.308;2022-09-09T10:46:05;94143.84;;;26.52;39.96
49393;BME280;35268;42.642;23.308;2022-09-09T10:51:36;94146.94;;;26.57;40.52
49393;BME280;35268;42.642;23.308;2022-09-09T10:54:29;94135.59;;;26.59;40.52
49393;BME280;35268;42.642;23.308;2022-09-09T10:57:05;94137.13;;;26.60;41.24
49393;BME280;35268;42.642;23.308;2022-09-09T10:59:46;94140.34;;;26.51;41.17
49393;BME280;35268;42.642;23.308;2022-09-09T11:02:19;94143.19;;;26.40;40.56
49393;BME280;35268;42.642;23.308;2022-09-09T11:05:10;94139.06;;;26.25;43.01
49393;BME280;35268;42.642;23.308;2022-09-09T11:07:42;94146.19;;;26.15;40.05
49393;BME280;35268;42.642;23.308;2022-09-09T11:10:20;94149.28;;;26.17;42.91
49393;BME280;35268;42.642;23.308;2022-09-09T11:12:50;94143.41;;;26.19;40.91
49393;BME280;35268;42.642;23.308;2022-09-09T11:15:25;94138.28;;;26.25;40.33
49393;BME280;35268;42.642;23.308;2022-09-09T11:17:56;94138.16;;;26.35;41.02
49393;BME280;35268;42.642;23.308;2022-09-09T11:20:25;94128.28;;;26.49;41.94
49393;BME280;35268;42.642;23.308;2022-09-09T11:23:13;94123.91;;;26.58;42.17
49393;BME280;35268;42.642;23.308;2022-09-09T11:25:48;94122.06;;;26.79;41.54
49393;BME280;35268;42.642;23.308;2022-09-09T11:31:38;94114.28;;;27.05;40.03
49393;BME280;35268;42.642;23.308;2022-09-09T11:34:19;94095.75;;;27.16;39.84
49393;BME280;35268;42.642;23.308;2022-09-09T11:39:35;94092.44;;;27.32;38.53
49393;BME280;35268;42.642;23.308;2022-09-09T11:42:18;94087.59;;;27.39;39.21
49393;BME280;35268;42.642;23.308;2022-09-09T11:44:44;94086.66;;;27.50;38.69
49393;BME280;35268;42.642;23.308;2022-09-09T11:47:27;94075.59;;;27.57;38.22
49393;BME280;35268;42.642;23.308;2022-09-09T11:52:45;94046.56;;;27.63;39.72
49393;BME280;35268;42.642;23.308;2022-09-09T11:55:28;94040.59;;;27.68;38.60
49393;BME280;35268;42.642;23.308;2022-09-09T11:58:02;94051.91;;;27.70;38.06
49393;BME280;35268;42.642;23.308;2022-09-09T12:00:39;94055.38;;;27.51;38.66
49393;BME280;35268;42.642;23.308;2022-09-09T12:03:49;94059.53;;;27.59;39.07
49393;BME280;35268;42.642;23.308;2022-09-09T12:06:30;94055.00;;;27.72;39.78
49393;BME280;35268;42.642;23.308;2022-09-09T12:09:27;94059.97;;;27.77;38.26
49393;BME280;35268;42.642;23.308;2022-09-09T12:12:26;94045.22;;;27.71;38.81
49393;BME280;35268;42.642;23.308;2022-09-09T12:17:45;94044.66;;;28.04;39.38
49393;BME280;35268;42.642;23.308;2022-09-09T12:20:26;94037.16;;;28.28;38.39
49393;BME280;35268;42.642;23.308;2022-09-09T12:29:08;94026.75;;;28.75;38.10
49393;BME280;35268;42.642;23.308;2022-09-09T12:32:06;94018.22;;;28.90;37.41
49393;BME280;35268;42.642;23.308;2022-09-09T12:34:42;94019.84;;;28.87;37.06
49393;BME280;35268;42.642;23.308;2022-09-09T12:38:13;94016.81;;;28.81;37.11
49393;BME280;35268;42.642;23.308;2022-09-09T12:40:28;94021.53;;;28.81;37.62
49393;BME280;35268;42.642;23.308;2022-09-09T12:42:54;94014.84;;;28.82;37.21
49393;BME280;35268;42.642;23.308;2022-09-09T12:45:28;94013.66;;;28.83;36.76
49393;BME280;35268;42.642;23.308;2022-09-09T12:48:00;94023.41;;;28.84;37.40
49393;BME280;35268;42.642;23.308;2022-09-09T12:50:33;94019.84;;;28.87;36.51
49393;BME280;35268;42.642;23.308;2022-09-09T12:53:11;94011.88;;;28.93;36.80
49393;BME280;35268;42.642;23.308;2022-09-09T12:55:59;94009.81;;;28.97;37.14
49393;BME280;35268;42.642;23.308;2022-09-09T12:58:26;93997.41;;;29.09;36.85
49393;BME280;35268;42.642;23.308;2022-09-09T13:00:55;93984.97;;;29.20;37.13
49393;BME280;35268;42.642;23.308;2022-09-09T13:03:24;93999.28;;;29.28;37.07
49393;BME280;35268;42.642;23.308;2022-09-09T13:05:50;94001.41;;;29.37;37.25
49393;BME280;35268;42.642;23.308;2022-09-09T13:08:17;93998.25;;;29.38;38.03
49393;BME280;35268;42.642;23.308;2022-09-09T13:10:53;93986.50;;;29.38;37.97
49393;BME280;35268;42.642;23.308;2022-09-09T13:13:29;93989.75;;;29.33;37.07
49393;BME280;35268;42.642;23.308;2022-09-09T13:15:58;93986.59;;;29.34;35.76
49393;BME280;35268;42.642;23.308;2022-09-09T13:18:29;93991.41;;;29.30;36.36
49393;BME280;35268;42.642;23.308;2022-09-09T13:20:56;93993.38;;;29.30;36.03
49393;BME280;35268;42.642;23.308;2022-09-09T13:23:27;93979.41;;;29.24;37.25
49393;BME280;35268;42.642;23.308;2022-09-09T13:25:58;93964.63;;;29.01;37.32
49393;BME280;35268;42.642;23.308;2022-09-09T13:28:29;93960.72;;;29.03;36.75
49393;BME280;35268;42.642;23.308;2022-09-09T13:31:03;93956.75;;;29.04;37.97
49393;BME280;35268;42.642;23.308;2022-09-09T13:33:39;93966.34;;;28.95;39.17
49393;BME280;35268;42.642;23.308;2022-09-09T13:36:07;93964.72;;;28.81;38.49
49393;BME280;35268;42.642;23.308;2022-09-09T13:41:41;93966.59;;;28.52;39.35
49393;BME280;35268;42.642;23.308;2022-09-09T13:44:18;93960.38;;;28.48;38.73
49393;BME280;35268;42.642;23.308;2022-09-09T13:46:45;93948.03;;;28.39;38.75
49393;BME280;35268;42.642;23.308;2022-09-09T13:54:06;93950.91;;;28.52;38.82
49393;BME280;35268;42.642;23.308;2022-09-09T13:56:35;93947.16;;;28.63;39.27
49393;BME280;35268;42.642;23.308;2022-09-09T13:59:03;93953.94;;;28.74;38.80
49393;BME280;35268;42.642;23.308;2022-09-09T14:01:29;93946.13;;;28.89;38.04
49393;BME280;35268;42.642;23.308;2022-09-09T14:03:55;93938.75;;;29.03;37.67
49393;BME280;35268;42.642;23.308;2022-09-09T14:06:21;93957.38;;;29.11;37.42
49393;BME280;35268;42.642;23.308;2022-09-09T14:08:50;93954.69;;;29.24;36.47
49393;BME280;35268;42.642;23.308;2022-09-09T14:11:16;93962.03;;;29.60;36.55
49393;BME280;35268;42.642;23.308;2022-09-09T14:13:42;93948.88;;;29.97;35.73
49393;BME280;35268;42.642;23.308;2022-09-09T14:16:07;93946.03;;;30.13;34.84
49393;BME280;35268;42.642;23.308;2022-09-09T14:18:33;93949.03;;;30.19;35.01
49393;BME280;35268;42.642;23.308;2022-09-09T14:20:59;93950.66;;;30.16;35.33
49393;BME280;35268;42.642;23.308;2022-09-09T14:23:25;93949.97;;;30.12;35.08
49393;BME280;35268;42.642;23.308;2022-09-09T14:25:51;93941.97;;;30.05;35.00
49393;BME280;35268;42.642;23.308;2022-09-09T14:28:17;93935.31;;;30.32;35.74
49393;BME280;35268;42.642;23.308;2022-09-09T14:30:43;93935.22;;;30.74;34.78
49393;BME280;35268;42.642;23.308;2022-09-09T14:33:11;93942.88;;;31.65;33.47
49393;BME280;35268;42.642;23.308;2022-09-09T14:35:37;93941.47;;;32.58;31.38
49393;BME280;35268;42.642;23.308;2022-09-09T14:38:04;93945.38;;;32.70;30.96
49393;BME280;35268;42.642;23.308;2022-09-09T14:40:30;93934.81;;;32.46;30.72
49393;BME280;35268;42.642;23.308;2022-09-09T14:42:55;93928.25;;;32.22;31.31
49393;BME280;35268;42.642;23.308;2022-09-09T14:45:22;93922.81;;;31.87;31.51
49393;BME280;35268;42.642;23.308;2022-09-09T14:47:49;93927.97;;;31.28;32.02
49393;BME280;35268;42.642;23.308;2022-09-09T14:50:15;93924.19;;;31.12;32.90
49393;BME280;35268;42.642;23.308;2022-09-09T14:52:40;93924.59;;;31.58;32.99
49393;BME280;35268;42.642;23.308;2022-09-09T14:55:06;93928.66;;;31.89;32.14
49393;BME280;35268;42.642;23.308;2022-09-09T14:57:32;93928.75;;;31.85;32.65
49393;BME280;35268;42.642;23.308;2022-09-09T14:59:57;93938.84;;;31.57;32.67
49393;BME280;35268;42.642;23.308;2022-09-09T15:02:23;93937.00;;;31.28;33.41
49393;BME280;35268;42.642;23.308;2022-09-09T15:04:48;93942.47;;;30.93;33.46
49393;BME280;35268;42.642;23.308;2022-09-09T15:07:15;93947.00;;;30.62;34.75
49393;BME280;35268;42.642;23.308;2022-09-09T15:09:42;93959.31;;;30.31;35.34
49393;BME280;35268;42.642;23.308;2022-09-09T15:12:07;93950.31;;;30.02;35.81
49393;BME280;35268;42.642;23.308;2022-09-09T15:14:33;93962.66;;;29.80;34.94
49393;BME280;35268;42.642;23.308;2022-09-09T15:16:59;93965.81;;;29.50;36.52
49393;BME280;35268;42.642;23.308;2022-09-09T15:19:24;93954.97;;;29.30;37.75
49393;BME280;35268;42.642;23.308;2022-09-09T15:21:50;93956.63;;;29.11;38.66
49393;BME280;35268;42.642;23.308;2022-09-09T15:24:15;93945.63;;;28.94;39.61
49393;BME280;35268;42.642;23.308;2022-09-09T15:26:41;93951.44;;;28.96;39.85
49393;BME280;35268;42.642;23.308;2022-09-09T15:29:07;93950.75;;;29.42;39.71